Tres Hombres — 9LD2206 — position and weather

sailwx.info

Track history (hours):
 
Tides and Currents Weather Stations Pressure Air Temp Water Temp Dewpoint Dewpoint Depression Visibility Wind Speed Wind Dir Waves Ship Positions

Tres Hombres

Ship's website: http://www.zeilendehandelsvaart.nl/

Last reported at 2015-May-24 04:17 UTC. Time now 2015-May-24 11:10 UTC.
Position N 51°20' E 003°12'.

Length 32 m.

Type: Sailing vessel. MMSI: 667905000.

Date/timePositionNaut miles runAvg speedWind from/ knotsBaromVisibWave heightAir tempDewpointWater temp
2015-May-24 04:17N 51°20' E 003°12'  
2015-May-19 04:18N 51°20' E 003°12'0 0.0
2015-May-18 17:23N 51°20' E 003°12'0 0.0
2015-May-18 11:24N 51°20' E 003°12'4 3.5
2015-May-18 10:23N 51°22' E 003°07'2 2.8
2015-May-18 09:32N 51°20' E 003°05'1 0.5
2015-May-18 08:17N 51°20' E 003°06'0 0.0
2015-May-18 07:29N 51°20' E 003°06'0 0.0
2015-May-18 06:23N 51°20' E 003°06'0 0.0
2015-May-18 05:32N 51°20' E 003°06'0 0.0
2015-May-18 04:29N 51°20' E 003°06'0 0.0
2015-May-18 03:32N 51°20' E 003°06'0 0.0
2015-May-18 02:22N 51°20' E 003°06'0 0.0
2015-May-17 22:29N 51°20' E 003°05'0 0.0
2015-May-17 21:33N 51°20' E 003°05'0 0.3
2015-May-17 20:33N 51°19' E 003°06'1 0.1
2015-May-17 06:20N 51°19' E 003°07'0 0.0
2015-May-17 04:05N 51°19' E 003°07'0 0.0
2015-May-17 03:29N 51°19' E 003°07'0 0.0
2015-May-17 02:05N 51°19' E 003°07'0 0.0
2015-May-16 19:08N 51°19' E 003°07'0 0.0
2015-May-16 15:32N 51°19' E 003°07'0 0.0
2015-May-16 02:29N 51°19' E 003°07'0 0.0
2015-May-16 00:22N 51°19' E 003°07'0 0.0
2015-May-15 23:20N 51°19' E 003°07'0 0.0
2015-May-15 22:23N 51°19' E 003°07'0 0.0
2015-May-15 21:29N 51°19' E 003°07'0 0.0
2015-May-15 20:29N 51°19' E 003°07'0 0.0
2015-May-15 19:17N 51°19' E 003°07'0 0.0
2015-May-15 17:23N 51°19' E 003°07'0 0.0
2015-May-15 16:29N 51°19' E 003°07'0 0.0
2015-May-15 15:11N 51°19' E 003°07'0 0.0
2015-May-15 14:17N 51°19' E 003°07'0 0.0
2015-May-15 13:05N 51°19' E 003°07'0 0.0
2015-May-15 11:14N 51°19' E 003°07'0 0.0
2015-May-15 10:23N 51°19' E 003°07'0 0.0
2015-May-15 09:20N 51°19' E 003°07'0 0.0
2015-May-15 08:29N 51°19' E 003°07'0 0.0
2015-May-15 06:27N 51°19' E 003°07'0 0.0
2015-May-15 05:18N 51°19' E 003°07'0 0.0
2015-May-15 04:29N 51°19' E 003°07'0 0.0
2015-May-15 02:23N 51°19' E 003°07'0 0.0
2015-May-15 01:33N 51°19' E 003°07'0 0.0
2015-May-15 00:17N 51°19' E 003°07'0 0.0
2015-May-14 23:29N 51°19' E 003°07'0 0.0
2015-May-14 21:18N 51°19' E 003°07'0 0.0
2015-May-14 20:17N 51°19' E 003°07'0 0.0
2015-May-14 18:23N 51°19' E 003°07'0 0.0
2015-May-14 17:32N 51°19' E 003°07'0 0.0
2015-May-14 15:32N 51°19' E 003°07'0 0.0
2015-May-14 14:32N 51°19' E 003°07'0 0.0
2015-May-14 12:32N 51°19' E 003°07'0 0.0
2015-May-14 08:14N 51°19' E 003°07'0 0.0
2015-May-14 07:20N 51°19' E 003°07'0 0.0
2015-May-14 06:29N 51°19' E 003°07'0 0.0
2015-May-14 05:23N 51°19' E 003°07'0 0.0
2015-May-14 04:32N 51°19' E 003°07'  
Track history (hours):
 
Tides and Currents Weather Stations Pressure Air Temp Water Temp Dewpoint Dewpoint Depression Visibility Wind Speed Wind Dir Waves Ship Positions

Tres Hombres

Ship's website: http://www.zeilendehandelsvaart.nl/

Last reported at 2015-May-24 04:17 UTC. Time now 2015-May-24 11:10 UTC.
Position N 51°20' E 003°12'.

Length 32 m.

Type: Sailing vessel. MMSI: 667905000.

Date/timePositionNaut miles runAvg speedWind from/ knotsBaromVisibWave heightAir tempDewpointWater temp
2015-May-24 04:17N 51°20' E 003°12'  
2015-May-19 04:18N 51°20' E 003°12'0 0.0
2015-May-18 17:23N 51°20' E 003°12'0 0.0
2015-May-18 11:24N 51°20' E 003°12'4 3.5
2015-May-18 10:23N 51°22' E 003°07'2 2.8
2015-May-18 09:32N 51°20' E 003°05'1 0.5
2015-May-18 08:17N 51°20' E 003°06'0 0.0
2015-May-18 07:29N 51°20' E 003°06'0 0.0
2015-May-18 06:23N 51°20' E 003°06'0 0.0
2015-May-18 05:32N 51°20' E 003°06'0 0.0
2015-May-18 04:29N 51°20' E 003°06'0 0.0
2015-May-18 03:32N 51°20' E 003°06'0 0.0
2015-May-18 02:22N 51°20' E 003°06'0 0.0
2015-May-17 22:29N 51°20' E 003°05'0 0.0
2015-May-17 21:33N 51°20' E 003°05'0 0.3
2015-May-17 20:33N 51°19' E 003°06'1 0.1
2015-May-17 06:20N 51°19' E 003°07'0 0.0
2015-May-17 04:05N 51°19' E 003°07'0 0.0
2015-May-17 03:29N 51°19' E 003°07'0 0.0
2015-May-17 02:05N 51°19' E 003°07'0 0.0
2015-May-16 19:08N 51°19' E 003°07'0 0.0
2015-May-16 15:32N 51°19' E 003°07'0 0.0
2015-May-16 02:29N 51°19' E 003°07'0 0.0
2015-May-16 00:22N 51°19' E 003°07'0 0.0
2015-May-15 23:20N 51°19' E 003°07'0 0.0
2015-May-15 22:23N 51°19' E 003°07'0 0.0
2015-May-15 21:29N 51°19' E 003°07'0 0.0
2015-May-15 20:29N 51°19' E 003°07'0 0.0
2015-May-15 19:17N 51°19' E 003°07'0 0.0
2015-May-15 17:23N 51°19' E 003°07'0 0.0
2015-May-15 16:29N 51°19' E 003°07'0 0.0
2015-May-15 15:11N 51°19' E 003°07'0 0.0
2015-May-15 14:17N 51°19' E 003°07'0 0.0
2015-May-15 13:05N 51°19' E 003°07'0 0.0
2015-May-15 11:14N 51°19' E 003°07'0 0.0
2015-May-15 10:23N 51°19' E 003°07'0 0.0
2015-May-15 09:20N 51°19' E 003°07'0 0.0
2015-May-15 08:29N 51°19' E 003°07'0 0.0
2015-May-15 06:27N 51°19' E 003°07'0 0.0
2015-May-15 05:18N 51°19' E 003°07'0 0.0
2015-May-15 04:29N 51°19' E 003°07'0 0.0
2015-May-15 02:23N 51°19' E 003°07'0 0.0
2015-May-15 01:33N 51°19' E 003°07'0 0.0
2015-May-15 00:17N 51°19' E 003°07'0 0.0
2015-May-14 23:29N 51°19' E 003°07'0 0.0
2015-May-14 21:18N 51°19' E 003°07'0 0.0
2015-May-14 20:17N 51°19' E 003°07'0 0.0
2015-May-14 18:23N 51°19' E 003°07'0 0.0
2015-May-14 17:32N 51°19' E 003°07'0 0.0
2015-May-14 15:32N 51°19' E 003°07'0 0.0
2015-May-14 14:32N 51°19' E 003°07'0 0.0
2015-May-14 12:32N 51°19' E 003°07'0 0.0
2015-May-14 08:14N 51°19' E 003°07'0 0.0
2015-May-14 07:20N 51°19' E 003°07'0 0.0
2015-May-14 06:29N 51°19' E 003°07'0 0.0
2015-May-14 05:23N 51°19' E 003°07'0 0.0
2015-May-14 04:32N 51°19' E 003°07'  

Dump ship's entire track history